DAL1008 KCVG-KDTW
Flight info
| Callsign | DAL1008 |
|---|---|
| Flight time | 0h 52m |
| Altitude | 31000 |
| Route | HAGOL5 PLASH TORRR HANBL3 |
| Aircraft | B738/M-SDE2E3FGHIRWXY/LB1 |
Departure
| Time | 2026-05-05 10:28 |
|---|---|
| Airport | Cincinnati Northern Kentucky International Airport (KCVG) |
Arrival
| Time | 2026-05-05 11:20 |
|---|---|
| Airport | Detroit Metropolitan Wayne County Airport (KDTW) |
| Time | Latitude | Longitude | Altitude | Speed | Heading |
|---|---|---|---|---|---|
| 2026-05-05 10:09 | 39.04975 | -84.65711 | 878 ft | 0 kts | 0° |
| 2026-05-05 10:14 | 39.04961 | -84.65711 | 878 ft | 4 kts | 0° |
| 2026-05-05 10:15 | 39.04934 | -84.65711 | 878 ft | 4 kts | 0° |
| 2026-05-05 10:15 | 39.04909 | -84.65711 | 878 ft | 3 kts | 1° |
| 2026-05-05 10:15 | 39.04886 | -84.65718 | 878 ft | 4 kts | 50° |
| 2026-05-05 10:15 | 39.04879 | -84.65747 | 878 ft | 4 kts | 90° |
| 2026-05-05 10:16 | 39.04879 | -84.65759 | 878 ft | 0 kts | 90° |
| 2026-05-05 10:19 | 39.04879 | -84.65758 | 878 ft | 0 kts | 90° |
| 2026-05-05 10:19 | 39.04879 | -84.65749 | 878 ft | 1 kts | 90° |
| 2026-05-05 10:20 | 39.04879 | -84.65737 | 878 ft | 1 kts | 89° |
| 2026-05-05 10:20 | 39.04879 | -84.65720 | 878 ft | 3 kts | 89° |
| 2026-05-05 10:20 | 39.04880 | -84.65683 | 878 ft | 6 kts | 88° |
| 2026-05-05 10:20 | 39.04882 | -84.65624 | 878 ft | 7 kts | 87° |
| 2026-05-05 10:21 | 39.04882 | -84.65562 | 878 ft | 7 kts | 94° |
| 2026-05-05 10:21 | 39.04879 | -84.65502 | 878 ft | 7 kts | 93° |
| 2026-05-05 10:21 | 39.04878 | -84.65442 | 878 ft | 7 kts | 89° |
| 2026-05-05 10:21 | 39.04879 | -84.65383 | 878 ft | 6 kts | 89° |
| 2026-05-05 10:22 | 39.04879 | -84.65325 | 878 ft | 6 kts | 89° |
| 2026-05-05 10:22 | 39.04880 | -84.65269 | 878 ft | 6 kts | 90° |
| 2026-05-05 10:22 | 39.04879 | -84.65214 | 878 ft | 6 kts | 91° |
| 2026-05-05 10:22 | 39.04878 | -84.65160 | 878 ft | 6 kts | 92° |
| 2026-05-05 10:23 | 39.04877 | -84.65107 | 878 ft | 6 kts | 91° |
| 2026-05-05 10:23 | 39.04876 | -84.65041 | 878 ft | 9 kts | 90° |
| 2026-05-05 10:23 | 39.04876 | -84.64957 | 878 ft | 10 kts | 90° |
| 2026-05-05 10:23 | 39.04898 | -84.64886 | 878 ft | 9 kts | 21° |
| 2026-05-05 10:24 | 39.04961 | -84.64881 | 878 ft | 9 kts | 1° |
| 2026-05-05 10:24 | 39.05022 | -84.64881 | 878 ft | 9 kts | 0° |
| 2026-05-05 10:24 | 39.05082 | -84.64882 | 878 ft | 8 kts | 0° |
| 2026-05-05 10:24 | 39.05140 | -84.64881 | 878 ft | 8 kts | 0° |
| 2026-05-05 10:25 | 39.05196 | -84.64880 | 878 ft | 8 kts | 360° |
| 2026-05-05 10:25 | 39.05251 | -84.64881 | 878 ft | 8 kts | 0° |
| 2026-05-05 10:25 | 39.05303 | -84.64880 | 878 ft | 7 kts | 0° |
| 2026-05-05 10:25 | 39.05355 | -84.64880 | 878 ft | 7 kts | 0° |
| 2026-05-05 10:26 | 39.05405 | -84.64880 | 878 ft | 8 kts | 360° |
| 2026-05-05 10:26 | 39.05462 | -84.64879 | 878 ft | 9 kts | 0° |
| 2026-05-05 10:26 | 39.05527 | -84.64878 | 878 ft | 10 kts | 0° |
| 2026-05-05 10:26 | 39.05570 | -84.64825 | 878 ft | 10 kts | 84° |
| 2026-05-05 10:27 | 39.05573 | -84.64739 | 880 ft | 10 kts | 91° |
| 2026-05-05 10:27 | 39.05539 | -84.64675 | 881 ft | 10 kts | 162° |
| 2026-05-05 10:27 | 39.05343 | -84.64671 | 880 ft | 61 kts | 180° |
| 2026-05-05 10:27 | 39.04650 | -84.64674 | 883 ft | 140 kts | 180° |
| 2026-05-05 10:28 | 39.03455 | -84.64641 | 1096 ft | 196 kts | 182° |
| 2026-05-05 10:28 | 39.02024 | -84.64651 | 2068 ft | 205 kts | 185° |
| 2026-05-05 10:28 | 39.00662 | -84.64596 | 3439 ft | 196 kts | 185° |
| 2026-05-05 10:28 | 38.99252 | -84.64182 | 4016 ft | 218 kts | 174° |
| 2026-05-05 10:29 | 38.97701 | -84.63624 | 4366 ft | 247 kts | 170° |
| 2026-05-05 10:29 | 38.96163 | -84.62398 | 5065 ft | 278 kts | 139° |
| 2026-05-05 10:29 | 38.95201 | -84.60161 | 5921 ft | 294 kts | 114° |
| 2026-05-05 10:29 | 38.94672 | -84.57609 | 6853 ft | 297 kts | 106° |
| 2026-05-05 10:30 | 38.94250 | -84.54988 | 7683 ft | 302 kts | 105° |
| 2026-05-05 10:30 | 38.93972 | -84.52282 | 8456 ft | 312 kts | 88° |
| 2026-05-05 10:30 | 38.94558 | -84.49604 | 9304 ft | 314 kts | 59° |
| 2026-05-05 10:30 | 38.95949 | -84.47478 | 10116 ft | 312 kts | 35° |
| 2026-05-05 10:31 | 38.97706 | -84.45769 | 10613 ft | 326 kts | 32° |
| 2026-05-05 10:31 | 38.99635 | -84.44045 | 10835 ft | 349 kts | 25° |
| 2026-05-05 10:31 | 39.01969 | -84.43036 | 11014 ft | 363 kts | 6° |
| 2026-05-05 10:31 | 39.04510 | -84.42378 | 11297 ft | 381 kts | 7° |
| 2026-05-05 10:32 | 39.07136 | -84.41672 | 11904 ft | 386 kts | 4° |
| 2026-05-05 10:32 | 39.09780 | -84.41679 | 12641 ft | 377 kts | 343° |
| 2026-05-05 10:32 | 39.12255 | -84.42556 | 13446 ft | 375 kts | 338° |
| 2026-05-05 10:32 | 39.14759 | -84.43546 | 14091 ft | 379 kts | 337° |
| 2026-05-05 10:33 | 39.17291 | -84.44543 | 14772 ft | 382 kts | 338° |
| 2026-05-05 10:33 | 39.19848 | -84.45527 | 15441 ft | 385 kts | 338° |
| 2026-05-05 10:33 | 39.22427 | -84.46502 | 16122 ft | 388 kts | 338° |
| 2026-05-05 10:33 | 39.25022 | -84.47477 | 16823 ft | 390 kts | 338° |
| 2026-05-05 10:34 | 39.27638 | -84.48452 | 17469 ft | 393 kts | 338° |
| 2026-05-05 10:34 | 39.30277 | -84.49430 | 18114 ft | 396 kts | 339° |
| 2026-05-05 10:34 | 39.32935 | -84.50415 | 18659 ft | 399 kts | 339° |
| 2026-05-05 10:34 | 39.35613 | -84.51408 | 19229 ft | 401 kts | 339° |
| 2026-05-05 10:35 | 39.38298 | -84.52405 | 19783 ft | 403 kts | 338° |
| 2026-05-05 10:35 | 39.40999 | -84.53409 | 20341 ft | 405 kts | 338° |
| 2026-05-05 10:35 | 39.43712 | -84.54420 | 20879 ft | 407 kts | 338° |
| 2026-05-05 10:35 | 39.46443 | -84.55438 | 21420 ft | 410 kts | 338° |
| 2026-05-05 10:36 | 39.48262 | -84.56116 | 21729 ft | 412 kts | 338° |
| 2026-05-05 10:36 | 39.51029 | -84.57150 | 22206 ft | 415 kts | 338° |
| 2026-05-05 10:36 | 39.53816 | -84.58191 | 22713 ft | 418 kts | 338° |
| 2026-05-05 10:36 | 39.56715 | -84.58847 | 23143 ft | 433 kts | 354° |
| 2026-05-05 10:37 | 39.59734 | -84.58308 | 23600 ft | 448 kts | 11° |
| 2026-05-05 10:37 | 39.62703 | -84.57040 | 24037 ft | 451 kts | 13° |
| 2026-05-05 10:37 | 39.65681 | -84.55682 | 24408 ft | 454 kts | 14° |
| 2026-05-05 10:37 | 39.68670 | -84.54306 | 24784 ft | 457 kts | 13° |
| 2026-05-05 10:38 | 39.71679 | -84.52936 | 25114 ft | 460 kts | 13° |
| 2026-05-05 10:38 | 39.74713 | -84.51576 | 25477 ft | 462 kts | 13° |
| 2026-05-05 10:38 | 39.77757 | -84.50226 | 25891 ft | 462 kts | 13° |
| 2026-05-05 10:38 | 39.80801 | -84.48883 | 26328 ft | 462 kts | 13° |
| 2026-05-05 10:39 | 39.83842 | -84.47545 | 26730 ft | 463 kts | 13° |
| 2026-05-05 10:39 | 39.86913 | -84.46195 | 26817 ft | 468 kts | 13° |
| 2026-05-05 10:39 | 39.90005 | -84.44833 | 26844 ft | 469 kts | 13° |
| 2026-05-05 10:39 | 39.93089 | -84.43469 | 26837 ft | 467 kts | 13° |
| 2026-05-05 10:40 | 39.96157 | -84.42110 | 26827 ft | 464 kts | 13° |
| 2026-05-05 10:40 | 39.99224 | -84.40753 | 26817 ft | 465 kts | 13° |
| 2026-05-05 10:40 | 40.02319 | -84.39642 | 26807 ft | 456 kts | 1° |
| 2026-05-05 10:40 | 40.05442 | -84.39565 | 26835 ft | 446 kts | 352° |
| 2026-05-05 10:41 | 40.08549 | -84.39712 | 26792 ft | 447 kts | 351° |
| 2026-05-05 10:41 | 40.11657 | -84.39864 | 26791 ft | 448 kts | 352° |
| 2026-05-05 10:41 | 40.14777 | -84.39998 | 26794 ft | 449 kts | 352° |
| 2026-05-05 10:41 | 40.17904 | -84.40111 | 26790 ft | 450 kts | 352° |
| 2026-05-05 10:42 | 40.24159 | -84.40294 | 26786 ft | 450 kts | 352° |
| 2026-05-05 10:42 | 40.27294 | -84.40375 | 26786 ft | 450 kts | 352° |
| 2026-05-05 10:42 | 40.30425 | -84.40454 | 26786 ft | 450 kts | 352° |
| 2026-05-05 10:43 | 40.33551 | -84.40533 | 26786 ft | 450 kts | 352° |
| 2026-05-05 10:43 | 40.36657 | -84.40610 | 26709 ft | 441 kts | 352° |
| 2026-05-05 10:43 | 40.39700 | -84.40683 | 26262 ft | 433 kts | 352° |
| 2026-05-05 10:43 | 40.42698 | -84.40758 | 25739 ft | 428 kts | 352° |
| 2026-05-05 10:44 | 40.45667 | -84.40837 | 25236 ft | 425 kts | 352° |
| 2026-05-05 10:44 | 40.48608 | -84.40916 | 24727 ft | 422 kts | 352° |
| 2026-05-05 10:44 | 40.51501 | -84.40995 | 24217 ft | 420 kts | 352° |
| 2026-05-05 10:44 | 40.54419 | -84.41074 | 23683 ft | 419 kts | 352° |
| 2026-05-05 10:45 | 40.57326 | -84.41152 | 23129 ft | 418 kts | 352° |
| 2026-05-05 10:45 | 40.60227 | -84.41230 | 22552 ft | 416 kts | 352° |
| 2026-05-05 10:45 | 40.63116 | -84.41305 | 22009 ft | 413 kts | 352° |
| 2026-05-05 10:45 | 40.65981 | -84.41381 | 21493 ft | 411 kts | 352° |
| 2026-05-05 10:46 | 40.68833 | -84.41456 | 21016 ft | 408 kts | 352° |
| 2026-05-05 10:46 | 40.71624 | -84.41527 | 20897 ft | 396 kts | 352° |
| 2026-05-05 10:46 | 40.74353 | -84.41596 | 20719 ft | 388 kts | 352° |
| 2026-05-05 10:46 | 40.77020 | -84.41646 | 20622 ft | 380 kts | 353° |
| 2026-05-05 10:47 | 40.79660 | -84.41680 | 20558 ft | 380 kts | 352° |
| 2026-05-05 10:47 | 40.82308 | -84.41715 | 20460 ft | 383 kts | 353° |
| 2026-05-05 10:47 | 40.84979 | -84.41749 | 20351 ft | 383 kts | 353° |
| 2026-05-05 10:47 | 40.87645 | -84.41781 | 20248 ft | 381 kts | 353° |
| 2026-05-05 10:48 | 40.90291 | -84.41814 | 20142 ft | 380 kts | 353° |
| 2026-05-05 10:48 | 40.92935 | -84.41847 | 20037 ft | 379 kts | 353° |
| 2026-05-05 10:48 | 40.95566 | -84.41881 | 19939 ft | 378 kts | 353° |
| 2026-05-05 10:48 | 40.98196 | -84.41916 | 19837 ft | 378 kts | 353° |
| 2026-05-05 10:49 | 41.00825 | -84.41951 | 19755 ft | 378 kts | 353° |
| 2026-05-05 10:49 | 41.03458 | -84.41986 | 19647 ft | 378 kts | 353° |
| 2026-05-05 10:49 | 41.06082 | -84.42022 | 19538 ft | 378 kts | 353° |
| 2026-05-05 10:49 | 41.08711 | -84.42057 | 19423 ft | 378 kts | 353° |
| 2026-05-05 10:50 | 41.11340 | -84.42092 | 19323 ft | 378 kts | 353° |
| 2026-05-05 10:50 | 41.13967 | -84.42127 | 19225 ft | 378 kts | 353° |
| 2026-05-05 10:50 | 41.16596 | -84.42162 | 19122 ft | 377 kts | 353° |
| 2026-05-05 10:50 | 41.19221 | -84.42197 | 19017 ft | 377 kts | 353° |
| 2026-05-05 10:51 | 41.21808 | -84.42231 | 18945 ft | 377 kts | 353° |
| 2026-05-05 10:51 | 41.24429 | -84.42266 | 18838 ft | 377 kts | 353° |
| 2026-05-05 10:51 | 41.27085 | -84.42302 | 18730 ft | 376 kts | 353° |
| 2026-05-05 10:51 | 41.29701 | -84.42337 | 18627 ft | 376 kts | 353° |
| 2026-05-05 10:52 | 41.32314 | -84.42371 | 18526 ft | 375 kts | 353° |
| 2026-05-05 10:52 | 41.34915 | -84.42406 | 18425 ft | 374 kts | 353° |
| 2026-05-05 10:52 | 41.37516 | -84.42441 | 18329 ft | 373 kts | 353° |
| 2026-05-05 10:52 | 41.40115 | -84.42476 | 18232 ft | 373 kts | 353° |
| 2026-05-05 10:53 | 41.42673 | -84.42476 | 18125 ft | 375 kts | 358° |
| 2026-05-05 10:53 | 41.45237 | -84.41609 | 18018 ft | 389 kts | 20° |
| 2026-05-05 10:53 | 41.47590 | -84.39799 | 17942 ft | 392 kts | 27° |
| 2026-05-05 10:53 | 41.49894 | -84.37837 | 17794 ft | 393 kts | 28° |
| 2026-05-05 10:54 | 41.52176 | -84.35861 | 17685 ft | 392 kts | 28° |
| 2026-05-05 10:54 | 41.54468 | -84.33885 | 17462 ft | 392 kts | 27° |
| 2026-05-05 10:54 | 41.56760 | -84.31929 | 17193 ft | 388 kts | 27° |
| 2026-05-05 10:54 | 41.59028 | -84.30007 | 17067 ft | 387 kts | 27° |
| 2026-05-05 10:55 | 41.61312 | -84.28084 | 17033 ft | 387 kts | 27° |
| 2026-05-05 10:55 | 41.63590 | -84.26167 | 17057 ft | 387 kts | 27° |
| 2026-05-05 10:55 | 41.65870 | -84.24250 | 17053 ft | 388 kts | 27° |
| 2026-05-05 10:55 | 41.68152 | -84.22328 | 17040 ft | 388 kts | 27° |
| 2026-05-05 10:56 | 41.70438 | -84.20400 | 17033 ft | 387 kts | 27° |
| 2026-05-05 10:56 | 41.72714 | -84.18479 | 17035 ft | 387 kts | 27° |
| 2026-05-05 10:56 | 41.74865 | -84.16269 | 16778 ft | 397 kts | 40° |
| 2026-05-05 10:56 | 41.76764 | -84.13596 | 16329 ft | 392 kts | 44° |
| 2026-05-05 10:57 | 41.78560 | -84.10886 | 15929 ft | 387 kts | 45° |
| 2026-05-05 10:57 | 41.80341 | -84.08192 | 15568 ft | 386 kts | 45° |
| 2026-05-05 10:57 | 41.82133 | -84.05518 | 15180 ft | 385 kts | 44° |
| 2026-05-05 10:57 | 41.83933 | -84.02873 | 14815 ft | 384 kts | 44° |
| 2026-05-05 10:58 | 41.85740 | -84.00242 | 14427 ft | 383 kts | 44° |
| 2026-05-05 10:58 | 41.87549 | -83.97622 | 14045 ft | 381 kts | 44° |
| 2026-05-05 10:58 | 41.89348 | -83.95020 | 13667 ft | 380 kts | 44° |
| 2026-05-05 10:58 | 41.91137 | -83.92430 | 13244 ft | 377 kts | 44° |
| 2026-05-05 10:59 | 41.92912 | -83.89859 | 12825 ft | 373 kts | 44° |
| 2026-05-05 10:59 | 41.94670 | -83.87309 | 12436 ft | 370 kts | 44° |
| 2026-05-05 10:59 | 41.96383 | -83.84822 | 12064 ft | 366 kts | 44° |
| 2026-05-05 10:59 | 41.98126 | -83.82304 | 11853 ft | 359 kts | 44° |
| 2026-05-05 11:00 | 41.99788 | -83.79923 | 11666 ft | 348 kts | 43° |
| 2026-05-05 11:00 | 42.01418 | -83.77591 | 11503 ft | 336 kts | 43° |
| 2026-05-05 11:00 | 42.02994 | -83.75335 | 11357 ft | 326 kts | 43° |
| 2026-05-05 11:00 | 42.04535 | -83.73129 | 11205 ft | 324 kts | 43° |
| 2026-05-05 11:01 | 42.06082 | -83.70911 | 11062 ft | 326 kts | 43° |
| 2026-05-05 11:01 | 42.07637 | -83.68679 | 10900 ft | 327 kts | 43° |
| 2026-05-05 11:01 | 42.09148 | -83.66386 | 10738 ft | 330 kts | 53° |
| 2026-05-05 11:01 | 42.10056 | -83.63542 | 10583 ft | 333 kts | 76° |
| 2026-05-05 11:02 | 42.10571 | -83.60505 | 10433 ft | 333 kts | 77° |
| 2026-05-05 11:02 | 42.11053 | -83.57451 | 10269 ft | 334 kts | 78° |
| 2026-05-05 11:02 | 42.11532 | -83.54392 | 10109 ft | 334 kts | 78° |
| 2026-05-05 11:02 | 42.12017 | -83.51340 | 9946 ft | 332 kts | 77° |
| 2026-05-05 11:03 | 42.12502 | -83.48329 | 9767 ft | 325 kts | 77° |
| 2026-05-05 11:03 | 42.12982 | -83.45355 | 9629 ft | 324 kts | 77° |
| 2026-05-05 11:03 | 42.13456 | -83.42439 | 9609 ft | 313 kts | 77° |
| 2026-05-05 11:03 | 42.13918 | -83.39613 | 9527 ft | 305 kts | 77° |
| 2026-05-05 11:04 | 42.14368 | -83.36854 | 9451 ft | 298 kts | 77° |
| 2026-05-05 11:04 | 42.14808 | -83.34155 | 9382 ft | 291 kts | 77° |
| 2026-05-05 11:04 | 42.15232 | -83.31553 | 9326 ft | 285 kts | 77° |
| 2026-05-05 11:04 | 42.15652 | -83.28966 | 9282 ft | 280 kts | 77° |
| 2026-05-05 11:05 | 42.16064 | -83.26425 | 9244 ft | 275 kts | 77° |
| 2026-05-05 11:05 | 42.16713 | -83.24047 | 9165 ft | 268 kts | 50° |
| 2026-05-05 11:05 | 42.18029 | -83.22387 | 9154 ft | 254 kts | 28° |
| 2026-05-05 11:05 | 42.19522 | -83.21167 | 9126 ft | 248 kts | 23° |
| 2026-05-05 11:06 | 42.21016 | -83.20026 | 9110 ft | 246 kts | 22° |
| 2026-05-05 11:06 | 42.22493 | -83.18888 | 9072 ft | 244 kts | 23° |
| 2026-05-05 11:06 | 42.23982 | -83.17833 | 9003 ft | 240 kts | 17° |
| 2026-05-05 11:06 | 42.25504 | -83.16906 | 8916 ft | 242 kts | 22° |
| 2026-05-05 11:07 | 42.26944 | -83.15705 | 8806 ft | 244 kts | 26° |
| 2026-05-05 11:07 | 42.28370 | -83.14479 | 8762 ft | 242 kts | 26° |
| 2026-05-05 11:07 | 42.29795 | -83.13258 | 8673 ft | 243 kts | 26° |
| 2026-05-05 11:07 | 42.31228 | -83.12034 | 8609 ft | 244 kts | 25° |
| 2026-05-05 11:08 | 42.32681 | -83.10801 | 8302 ft | 249 kts | 25° |
| 2026-05-05 11:08 | 42.34141 | -83.09570 | 7937 ft | 249 kts | 26° |
| 2026-05-05 11:08 | 42.35617 | -83.08328 | 7555 ft | 246 kts | 25° |
| 2026-05-05 11:08 | 42.37057 | -83.07118 | 7176 ft | 242 kts | 26° |
| 2026-05-05 11:09 | 42.38489 | -83.05920 | 6737 ft | 242 kts | 25° |
| 2026-05-05 11:09 | 42.39927 | -83.04727 | 6319 ft | 242 kts | 25° |
| 2026-05-05 11:09 | 42.41364 | -83.03540 | 5890 ft | 242 kts | 25° |
| 2026-05-05 11:09 | 42.42799 | -83.02350 | 5440 ft | 242 kts | 25° |
| 2026-05-05 11:10 | 42.44211 | -83.01175 | 5249 ft | 228 kts | 25° |
| 2026-05-05 11:10 | 42.45549 | -83.00151 | 5119 ft | 217 kts | 11° |
| 2026-05-05 11:10 | 42.46976 | -83.00062 | 4869 ft | 199 kts | 333° |
| 2026-05-05 11:10 | 42.48035 | -83.01069 | 4630 ft | 182 kts | 297° |
| 2026-05-05 11:11 | 42.48376 | -83.02665 | 4411 ft | 177 kts | 274° |
| 2026-05-05 11:11 | 42.48522 | -83.04334 | 4152 ft | 180 kts | 275° |
| 2026-05-05 11:11 | 42.48674 | -83.06018 | 3907 ft | 182 kts | 275° |
| 2026-05-05 11:11 | 42.48823 | -83.07695 | 3641 ft | 177 kts | 275° |
| 2026-05-05 11:12 | 42.48967 | -83.09320 | 3377 ft | 171 kts | 275° |
| 2026-05-05 11:12 | 42.49107 | -83.10895 | 3125 ft | 170 kts | 275° |
| 2026-05-05 11:12 | 42.49021 | -83.12494 | 2829 ft | 173 kts | 244° |
| 2026-05-05 11:12 | 42.48112 | -83.13535 | 2764 ft | 180 kts | 212° |
| 2026-05-05 11:13 | 42.47055 | -83.14451 | 2756 ft | 179 kts | 227° |
| 2026-05-05 11:13 | 42.46060 | -83.15493 | 2771 ft | 183 kts | 219° |
| 2026-05-05 11:13 | 42.44953 | -83.16392 | 2784 ft | 188 kts | 216° |
| 2026-05-05 11:13 | 42.43789 | -83.17276 | 2783 ft | 190 kts | 215° |
| 2026-05-05 11:14 | 42.42655 | -83.18120 | 2781 ft | 187 kts | 215° |
| 2026-05-05 11:14 | 42.41524 | -83.18957 | 2780 ft | 184 kts | 215° |
| 2026-05-05 11:14 | 42.40425 | -83.19764 | 2764 ft | 173 kts | 216° |
| 2026-05-05 11:14 | 42.39396 | -83.20523 | 2753 ft | 166 kts | 216° |
| 2026-05-05 11:15 | 42.38390 | -83.21269 | 2747 ft | 165 kts | 216° |
| 2026-05-05 11:15 | 42.37385 | -83.22013 | 2745 ft | 164 kts | 216° |
| 2026-05-05 11:15 | 42.36387 | -83.22751 | 2751 ft | 164 kts | 216° |
| 2026-05-05 11:15 | 42.35379 | -83.23496 | 2763 ft | 167 kts | 216° |
| 2026-05-05 11:16 | 42.34356 | -83.24252 | 2754 ft | 167 kts | 216° |
| 2026-05-05 11:16 | 42.33349 | -83.24994 | 2760 ft | 163 kts | 216° |
| 2026-05-05 11:16 | 42.32373 | -83.25714 | 2767 ft | 156 kts | 216° |
| 2026-05-05 11:16 | 42.31424 | -83.26415 | 2760 ft | 155 kts | 216° |
| 2026-05-05 11:17 | 42.30460 | -83.27129 | 2554 ft | 153 kts | 216° |
| 2026-05-05 11:17 | 42.29557 | -83.27796 | 2369 ft | 149 kts | 216° |
| 2026-05-05 11:17 | 42.28653 | -83.28464 | 2175 ft | 147 kts | 216° |
| 2026-05-05 11:17 | 42.27751 | -83.29130 | 1969 ft | 144 kts | 215° |
| 2026-05-05 11:18 | 42.26891 | -83.29767 | 1795 ft | 144 kts | 216° |
| 2026-05-05 11:18 | 42.26006 | -83.30422 | 1587 ft | 146 kts | 214° |
| 2026-05-05 11:18 | 42.25114 | -83.31082 | 1394 ft | 148 kts | 213° |
| 2026-05-05 11:18 | 42.24209 | -83.31747 | 1183 ft | 147 kts | 211° |
| 2026-05-05 11:19 | 42.23313 | -83.32406 | 942 ft | 144 kts | 211° |
| 2026-05-05 11:19 | 42.22462 | -83.33034 | 787 ft | 136 kts | 210° |
| 2026-05-05 11:19 | 42.21650 | -83.33636 | 657 ft | 133 kts | 210° |
| 2026-05-05 11:19 | 42.20939 | -83.34163 | 645 ft | 97 kts | 209° |
| 2026-05-05 11:20 | 42.20438 | -83.34537 | 646 ft | 63 kts | 208° |
| 2026-05-05 11:20 | 42.20278 | -83.34652 | 646 ft | 13 kts | 208° |
| 2026-05-05 11:20 | 42.20226 | -83.34691 | 646 ft | 7 kts | 211° |
| 2026-05-05 11:20 | 42.20191 | -83.34753 | 647 ft | 5 kts | 256° |
| 2026-05-05 11:21 | 42.20187 | -83.34801 | 646 ft | 5 kts | 268° |
| 2026-05-05 11:21 | 42.20185 | -83.34849 | 646 ft | 5 kts | 268° |
| 2026-05-05 11:21 | 42.20184 | -83.34896 | 646 ft | 5 kts | 270° |
| 2026-05-05 11:21 | 42.20185 | -83.34942 | 646 ft | 5 kts | 269° |
| 2026-05-05 11:22 | 42.20182 | -83.34993 | 647 ft | 6 kts | 265° |
| 2026-05-05 11:22 | 42.20179 | -83.35068 | 646 ft | 9 kts | 268° |
| 2026-05-05 11:22 | 42.20178 | -83.35152 | 646 ft | 9 kts | 268° |
| 2026-05-05 11:22 | 42.20175 | -83.35235 | 646 ft | 9 kts | 267° |
| 2026-05-05 11:23 | 42.20174 | -83.35315 | 646 ft | 8 kts | 270° |
| 2026-05-05 11:23 | 42.20173 | -83.35393 | 646 ft | 8 kts | 269° |
| 2026-05-05 11:23 | 42.20172 | -83.35474 | 646 ft | 9 kts | 268° |
| 2026-05-05 11:23 | 42.20170 | -83.35567 | 648 ft | 11 kts | 268° |
| 2026-05-05 11:24 | 42.20168 | -83.35684 | 647 ft | 13 kts | 269° |
| 2026-05-05 11:24 | 42.20166 | -83.35817 | 645 ft | 15 kts | 269° |
| 2026-05-05 11:24 | 42.20164 | -83.35958 | 645 ft | 15 kts | 269° |
| 2026-05-05 11:24 | 42.20162 | -83.36095 | 645 ft | 14 kts | 270° |
| 2026-05-05 11:25 | 42.20171 | -83.36225 | 645 ft | 14 kts | 280° |
| 2026-05-05 11:25 | 42.20188 | -83.36340 | 646 ft | 10 kts | 280° |
| 2026-05-05 11:25 | 42.20228 | -83.36403 | 645 ft | 10 kts | 350° |
| 2026-05-05 11:25 | 42.20292 | -83.36390 | 645 ft | 9 kts | 17° |
| 2026-05-05 11:26 | 42.20349 | -83.36353 | 646 ft | 9 kts | 29° |
| 2026-05-05 11:26 | 42.20403 | -83.36313 | 645 ft | 9 kts | 28° |
| 2026-05-05 11:26 | 42.20438 | -83.36288 | 645 ft | 9 kts | 29° |
| 2026-05-05 11:26 | 42.20490 | -83.36249 | 645 ft | 8 kts | 29° |
| 2026-05-05 11:27 | 42.20540 | -83.36212 | 646 ft | 8 kts | 29° |
| 2026-05-05 11:27 | 42.20593 | -83.36172 | 647 ft | 10 kts | 28° |
| 2026-05-05 11:27 | 42.20660 | -83.36123 | 645 ft | 12 kts | 28° |
| 2026-05-05 11:27 | 42.20740 | -83.36065 | 645 ft | 14 kts | 29° |
| 2026-05-05 11:28 | 42.20833 | -83.35997 | 645 ft | 16 kts | 28° |
| 2026-05-05 11:28 | 42.20937 | -83.35920 | 645 ft | 18 kts | 28° |
| 2026-05-05 11:28 | 42.21044 | -83.35844 | 645 ft | 17 kts | 27° |
| 2026-05-05 11:28 | 42.21145 | -83.35767 | 646 ft | 16 kts | 28° |
| 2026-05-05 11:29 | 42.21241 | -83.35696 | 645 ft | 14 kts | 28° |
| 2026-05-05 11:29 | 42.21248 | -83.35691 | 645 ft | 1 kts | 28° |
| 2026-05-05 11:29 | 42.21278 | -83.35670 | 645 ft | 10 kts | 28° |
| 2026-05-05 11:29 | 42.21341 | -83.35622 | 645 ft | 10 kts | 30° |
| 2026-05-05 11:30 | 42.21399 | -83.35577 | 645 ft | 8 kts | 30° |
| 2026-05-05 11:30 | 42.21426 | -83.35525 | 645 ft | 7 kts | 93° |
| 2026-05-05 11:30 | 42.21414 | -83.35483 | 646 ft | 3 kts | 117° |
| 2026-05-05 11:30 | 42.21408 | -83.35469 | 645 ft | 1 kts | 118° |
| 2026-05-05 11:31 | 42.21408 | -83.35468 | 645 ft | 0 kts | 118° |